Time;durP1;ratioP1;P1;durP2;ratioP2;P2;SDS_P1;SDS_P2;PMS_P1;PMS_P2;Temp;Humidity;BMP_temperature;BMP_pressure;BME280_temperature;BME280_humidity;BME280_pressure;Samples;Min_cycle;Max_cycle;Signal;HPM_P1;HPM_P2
2023/04/14 00:00:11;;;;;;;15.63;10.20;;;;;;;-146.25;100.00;52410.78;2088140;28;30503;-72
2023/04/14 00:01:18;;;;;;;17.52;9.98;;;;;;;-146.25;100.00;52390.50;2086814;28;41708;-72
2023/04/14 00:02:20;;;;;;;18.10;10.45;;;;;;;-146.25;100.00;52398.59;2087750;28;35987;-72
2023/04/14 00:03:23;;;;;;;20.13;11.95;;;;;;;-146.25;100.00;52418.88;2088374;28;20030;-73
2023/04/14 00:04:25;;;;;;;22.30;11.88;;;;;;;-146.25;100.00;52414.84;2087776;28;34740;-72
2023/04/14 00:05:31;;;;;;;27.70;13.63;;;;;;;-146.25;100.00;52386.44;2088267;28;32497;-72
2023/04/14 00:06:33;;;;;;;20.48;12.95;;;;;;;-146.25;100.00;52433.06;2087860;28;35836;-72
2023/04/14 00:07:35;;;;;;;20.60;12.52;;;;;;;-146.25;100.00;52414.84;2087831;28;35943;-72
2023/04/14 00:08:39;;;;;;;24.63;12.98;;;;;;;-146.25;100.00;52420.91;2087625;28;34094;-73
2023/04/14 00:09:41;;;;;;;23.60;14.27;;;;;;;-146.25;100.00;52376.31;2087548;28;37365;-72
2023/04/14 00:10:43;;;;;;;24.80;12.98;;;;;;;-146.25;100.00;52384.41;2088548;28;20860;-72
2023/04/14 00:11:44;;;;;;;19.95;11.30;;;;;;;-146.25;100.00;52384.41;2087836;28;32740;-73
2023/04/14 00:12:46;;;;;;;25.73;11.45;;;;;;;-146.25;100.00;52396.59;2087222;28;38646;-72
2023/04/14 00:13:51;;;;;;;24.38;12.65;;;;;;;-146.25;100.00;52380.38;2088433;28;20036;-73
2023/04/14 00:14:53;;;;;;;20.50;11.23;;;;;;;-146.25;100.00;52366.16;2087720;28;35954;-72
2023/04/14 00:15:55;;;;;;;20.33;12.77;;;;;;;-146.25;100.00;52364.13;2087614;28;37877;-73
2023/04/14 00:16:56;;;;;;;23.38;13.68;;;;;;;-146.25;100.00;52376.31;2087795;28;35698;-72
2023/04/14 00:17:58;;;;;;;34.60;16.15;;;;;;;-146.25;100.00;52376.31;2087658;28;35484;-72
2023/04/14 00:19:01;;;;;;;30.67;16.30;;;;;;;-146.25;100.00;52404.69;2088891;28;30883;-73
2023/04/14 00:20:03;;;;;;;28.60;17.40;;;;;;;-146.25;100.00;52370.22;2089356;28;32440;-72
2023/04/14 00:21:07;;;;;;;32.60;18.27;;;;;;;-146.25;100.00;52392.53;2088757;28;36871;-74
2023/04/14 00:22:09;;;;;;;28.08;17.58;;;;;;;-146.25;100.00;52420.91;2088765;28;32446;-72
2023/04/14 00:23:11;;;;;;;32.35;17.52;;;;;;;-146.25;100.00;52384.41;2089318;28;38564;-73
2023/04/14 00:24:13;;;;;;;41.03;20.40;;;;;;;-146.25;100.00;52400.63;2089884;28;20100;-72
2023/04/14 00:25:15;;;;;;;35.42;19.67;;;;;;;-146.25;100.00;52416.84;2088818;28;34159;-72
2023/04/14 00:26:17;;;;;;;36.60;19.83;;;;;;;-146.25;100.00;52368.19;2097066;28;36045;-72
2023/04/14 00:27:18;;;;;;;32.55;20.30;;;;;;;-146.25;100.00;52396.59;2097728;28;20040;-72
2023/04/14 00:28:22;;;;;;;30.65;18.83;;;;;;;-146.25;100.00;52358.06;2088229;28;32644;-72
2023/04/14 00:29:24;;;;;;;35.53;19.38;;;;;;;-146.25;100.00;52410.78;2088562;28;26246;-72
2023/04/14 00:30:26;;;;;;;38.53;19.35;;;;;;;-146.25;100.00;52398.59;2088598;28;21078;-72
2023/04/14 00:31:28;;;;;;;31.65;17.83;;;;;;;-146.25;100.00;52398.59;2097096;28;30492;-70
2023/04/14 00:32:30;;;;;;;30.48;17.58;;;;;;;-146.25;100.00;52382.38;2088463;28;26608;-72
2023/04/14 00:33:34;;;;;;;28.67;17.23;;;;;;;-146.25;100.00;52406.72;2088980;28;20061;-70
2023/04/14 00:34:38;;;;;;;33.33;16.60;;;;;;;-146.25;100.00;52410.78;2088631;28;20048;-70
2023/04/14 00:35:42;;;;;;;37.75;19.80;;;;;;;-146.25;100.00;52384.41;2088152;28;26822;-70
2023/04/14 00:36:44;;;;;;;24.77;16.02;;;;;;;-146.25;100.00;52418.88;2105249;28;26058;-72
2023/04/14 00:37:46;;;;;;;31.60;16.90;;;;;;;-146.25;100.00;52386.44;2105511;28;22746;-70
2023/04/14 00:38:50;;;;;;;22.27;14.80;;;;;;;-146.25;100.00;52412.81;2089298;28;26220;-69
2023/04/14 00:39:52;;;;;;;26.08;15.60;;;;;;;-146.25;100.00;52384.41;2089392;28;30419;-73
2023/04/14 00:40:53;;;;;;;30.83;16.17;;;;;;;-146.25;100.00;52400.63;2088919;28;33729;-70
2023/04/14 00:42:01;;;;;;;26.58;15.35;;;;;;;-146.25;100.00;52394.56;2089644;28;20908;-70
2023/04/14 00:43:03;;;;;;;29.65;16.25;;;;;;;-146.25;100.00;52412.81;2089649;28;20048;-70
2023/04/14 00:44:05;;;;;;;29.38;15.63;;;;;;;-146.25;100.00;52384.41;2088933;28;30326;-70
2023/04/14 00:45:07;;;;;;;28.63;16.67;;;;;;;-146.25;100.00;52424.97;2089262;28;25325;-72
2023/04/14 00:46:15;;;;;;;25.17;15.88;;;;;;;-146.25;100.00;52412.81;2088411;28;28976;-70
2023/04/14 00:47:18;;;;;;;27.00;14.50;;;;;;;-146.25;100.00;52392.53;2089471;28;22560;-72
2023/04/14 00:48:20;;;;;;;24.73;15.32;;;;;;;-146.25;100.00;52404.69;2089672;28;20038;-72
2023/04/14 00:49:22;;;;;;;28.27;16.42;;;;;;;-146.25;100.00;52400.63;2089970;28;20047;-71
2023/04/14 00:50:24;;;;;;;26.80;15.90;;;;;;;-146.25;100.00;52408.75;2089069;28;30879;-73
2023/04/14 00:51:28;;;;;;;26.42;14.32;;;;;;;-146.25;100.00;52396.59;2089350;28;20039;-72
2023/04/14 00:52:31;;;;;;;26.15;14.55;;;;;;;-146.25;100.00;52424.97;2088236;28;28712;-70
2023/04/14 00:53:33;;;;;;;19.27;13.75;;;;;;;-146.25;100.00;52453.34;2088478;28;31753;-69
2023/04/14 00:54:36;;;;;;;26.90;14.57;;;;;;;-146.25;100.00;52390.50;2088934;28;20080;-70
2023/04/14 00:55:42;;;;;;;20.90;12.45;;;;;;;-146.25;100.00;52418.88;2089062;28;29414;-72
2023/04/14 00:56:52;;;;;;;25.08;14.20;;;;;;;-146.25;100.00;52368.19;2089320;28;26109;-72
2023/04/14 00:57:56;;;;;;;;;;;;;;;-146.25;100.00;52416.84;2097213;28;27222;-69
2023/04/14 00:59:01;;;;;;;22.85;12.73;;;;;;;-146.25;100.00;52408.75;2095473;28;35112;-69
2023/04/14 01:00:04;;;;;;;19.15;12.27;;;;;;;-146.25;100.00;52376.31;2088822;28;20050;-72
2023/04/14 01:01:06;;;;;;;23.67;13.70;;;;;;;-146.25;100.00;52396.59;2088875;28;20033;-72
2023/04/14 01:02:09;;;;;;;22.17;12.85;;;;;;;-146.25;100.00;52412.81;2089458;28;20135;-72
2023/04/14 01:03:11;;;;;;;24.55;13.52;;;;;;;-146.25;100.00;52398.59;2089119;28;28077;-72
2023/04/14 01:04:14;;;;;;;25.75;14.63;;;;;;;-146.25;100.00;52392.53;2096773;28;25007;-69
2023/04/14 01:05:16;;;;;;;31.80;16.48;;;;;;;-146.25;100.00;52412.81;2091636;28;20417;-73
2023/04/14 01:06:19;;;;;;;32.60;16.98;;;;;;;-146.25;100.00;52392.53;2087734;28;20041;-70
2023/04/14 01:07:23;;;;;;;27.40;17.02;;;;;;;-146.25;100.00;52388.47;2088391;28;25118;-69
2023/04/14 01:08:26;;;;;;;36.22;19.00;;;;;;;-146.25;100.00;52429.03;2080024;28;34140;-70
2023/04/14 01:09:27;;;;;;;31.83;17.70;;;;;;;-146.25;100.00;52412.81;2088047;28;26048;-72
2023/04/14 01:10:40;;;;;;;35.30;20.20;;;;;;;-146.25;100.00;52437.13;2088415;28;20041;-69
2023/04/14 01:12:33;;;;;;;39.03;21.77;;;;;;;-146.25;100.00;52368.19;2096603;28;25674;-69
2023/04/14 01:14:12;;;;;;;38.30;20.45;;;;;;;-146.25;100.00;52424.97;2081699;28;20049;-72
2023/04/14 01:15:37;;;;;;;35.10;20.02;;;;;;;-146.25;100.00;52382.38;2081581;28;20026;-69
2023/04/14 01:16:44;;;;;;;35.75;19.50;;;;;;;-146.25;100.00;52435.09;2096782;28;20044;-72
2023/04/14 01:18:18;;;;;;;39.58;20.70;;;;;;;-146.25;100.00;52400.63;2078516;28;20143;-72
2023/04/14 01:19:26;;;;;;;32.90;19.70;;;;;;;-146.25;100.00;52394.56;2090326;28;20087;-72
2023/04/14 01:20:35;;;;;;;41.75;20.02;;;;;;;-146.25;100.00;52356.03;2091216;28;20042;-69
2023/04/14 01:21:42;;;;;;;34.25;20.42;;;;;;;-146.25;100.00;52396.59;2080967;28;29927;-72
2023/04/14 01:23:21;;;;;;;37.53;20.92;;;;;;;-146.25;100.00;52410.78;2088022;28;20053;-69
2023/04/14 01:25:35;;;;;;;29.10;16.98;;;;;;;-146.25;100.00;52463.50;2077285;28;20123;-71
2023/04/14 01:26:38;;;;;;;29.83;16.67;;;;;;;-146.25;100.00;52360.09;2079939;28;20179;-72
2023/04/14 01:28:14;;;;;;;29.85;17.60;;;;;;;-146.25;100.00;52380.38;2080213;28;20092;-69
2023/04/14 01:29:37;;;;;;;28.90;16.10;;;;;;;-146.25;100.00;52360.09;2081494;28;23535;-72
2023/04/14 01:31:22;;;;;;;25.20;15.50;;;;;;;-146.25;100.00;52416.84;2076096;28;20870;-71
2023/04/14 01:32:26;;;;;;;20.67;13.88;;;;;;;-146.25;100.00;52400.63;2080868;28;21054;-72
2023/04/14 01:33:32;;;;;;;22.45;13.57;;;;;;;-146.25;100.00;52380.38;2080718;28;31636;-72
2023/04/14 01:34:47;;;;;;;26.77;15.07;;;;;;;-146.25;100.00;52398.59;2088486;28;20041;-72
2023/04/14 01:35:55;;;;;;;30.73;16.45;;;;;;;-146.25;100.00;52400.63;2094296;28;31680;-72
2023/04/14 01:37:20;;;;;;;24.10;15.80;;;;;;;-146.25;100.00;52380.38;2088282;28;20064;-70
2023/04/14 01:38:28;;;;;;;23.48;15.05;;;;;;;-146.25;100.00;52376.31;2088892;28;20048;-72
2023/04/14 01:39:36;;;;;;;19.65;12.88;;;;;;;-146.25;100.00;52370.22;2081992;28;20167;-72
2023/04/14 01:40:44;;;;;;;20.08;14.35;;;;;;;-146.25;100.00;52380.38;2081337;28;20785;-69
2023/04/14 01:41:55;;;;;;;24.10;13.88;;;;;;;-146.25;100.00;52382.38;2081548;28;20046;-72
2023/04/14 01:43:03;;;;;;;27.75;15.35;;;;;;;-146.25;100.00;52400.63;2081492;28;20054;-72
2023/04/14 01:44:06;;;;;;;26.80;15.52;;;;;;;-146.25;100.00;52398.59;2081993;28;20049;-72
2023/04/14 01:45:25;;;;;;;30.15;17.02;;;;;;;-146.25;100.00;52414.84;2089597;28;20025;-70
2023/04/14 01:46:27;;;;;;;25.13;15.65;;;;;;;-146.25;100.00;52431.06;2096995;28;20052;-72
2023/04/14 01:47:34;;;;;;;26.20;15.45;;;;;;;-146.25;100.00;52404.69;2096530;28;21511;-70
2023/04/14 01:48:36;;;;;;;22.55;14.30;;;;;;;-146.25;100.00;52384.41;2088123;28;24669;-72
2023/04/14 01:49:43;;;;;;;31.20;16.45;;;;;;;-146.25;100.00;52406.72;2088543;28;21008;-69
2023/04/14 01:50:46;;;;;;;20.35;13.93;;;;;;;-146.25;100.00;52404.69;2096592;28;20521;-72
2023/04/14 01:51:50;;;;;;;25.45;13.80;;;;;;;-146.25;100.00;52390.50;2088328;28;20081;-71
2023/04/14 01:52:53;;;;;;;21.42;13.07;;;;;;;-146.25;100.00;52416.84;2080262;28;20042;-70
2023/04/14 01:53:57;;;;;;;19.67;12.50;;;;;;;-146.25;100.00;52420.91;2064293;28;22046;-70
2023/04/14 01:55:05;;;;;;;21.23;12.82;;;;;;;-146.25;100.00;52388.47;2090114;28;20136;-70
2023/04/14 01:56:11;;;;;;;29.92;14.45;;;;;;;-146.25;100.00;52398.59;2094826;28;20653;-70
2023/04/14 01:57:19;;;;;;;19.92;13.27;;;;;;;-146.25;100.00;52414.84;2089976;28;20143;-70
2023/04/14 01:58:22;;;;;;;25.73;14.73;;;;;;;-146.25;100.00;52416.84;2096641;28;20188;-69
2023/04/14 01:59:26;;;;;;;29.90;17.13;;;;;;;-146.25;100.00;52386.44;2088252;28;20041;-69
2023/04/14 02:00:28;;;;;;;29.58;18.13;;;;;;;-146.25;100.00;52422.94;2078382;28;20057;-69
2023/04/14 02:01:32;;;;;;;28.20;16.85;;;;;;;-146.25;100.00;52388.47;2079622;28;36457;-69
2023/04/14 02:02:38;;;;;;;37.17;18.75;;;;;;;-146.25;100.00;52372.25;2088322;28;20175;-69
2023/04/14 02:03:41;;;;;;;32.55;18.13;;;;;;;-146.25;100.00;52394.56;2096652;28;20048;-69
2023/04/14 02:04:46;;;;;;;36.28;19.48;;;;;;;-146.25;100.00;52414.84;2096292;28;20045;-70
2023/04/14 02:05:54;;;;;;;31.83;18.60;;;;;;;-146.25;100.00;52406.72;2087769;28;21392;-69
2023/04/14 02:07:01;;;;;;;43.22;22.48;;;;;;;-146.25;100.00;52398.59;2079246;28;22065;-69
2023/04/14 02:08:08;;;;;;;35.50;19.70;;;;;;;-146.25;100.00;52412.81;2079613;28;26816;-69
2023/04/14 02:09:11;;;;;;;35.42;19.50;;;;;;;-146.25;100.00;52384.41;2088564;28;20048;-68
2023/04/14 02:10:19;;;;;;;37.70;20.75;;;;;;;-146.25;100.00;52400.63;2079728;28;20045;-69
2023/04/14 02:11:22;;;;;;;28.98;17.83;;;;;;;-146.25;100.00;52416.84;2072652;28;30856;-69
2023/04/14 02:12:27;;;;;;;29.55;17.27;;;;;;;-146.25;100.00;52400.63;2095912;28;26281;-69
2023/04/14 02:13:30;;;;;;;30.85;19.35;;;;;;;-146.25;100.00;52408.75;2087887;28;25463;-69
2023/04/14 02:14:33;;;;;;;27.60;16.42;;;;;;;-146.25;100.00;52408.75;2079999;28;20041;-69
2023/04/14 02:15:36;;;;;;;30.33;17.95;;;;;;;-146.25;100.00;52398.59;2080120;28;20381;-69
2023/04/14 02:16:38;;;;;;;29.60;18.52;;;;;;;-146.25;100.00;52398.59;2079649;28;29254;-69
2023/04/14 02:17:42;;;;;;;28.92;18.05;;;;;;;-146.25;100.00;52376.31;2096462;28;20886;-69
2023/04/14 02:18:45;;;;;;;31.75;18.77;;;;;;;-146.25;100.00;52410.78;2086883;28;27064;-69
2023/04/14 02:19:48;;;;;;;27.13;16.90;;;;;;;-146.25;100.00;52396.59;2079567;28;25602;-69
2023/04/14 02:20:53;;;;;;;28.77;16.48;;;;;;;-146.25;100.00;52392.53;2079602;28;34282;-69
2023/04/14 02:21:56;;;;;;;28.35;17.15;;;;;;;-146.25;100.00;52396.59;2081196;28;20697;-69
2023/04/14 02:23:00;;;;;;;31.25;17.83;;;;;;;-146.25;100.00;52427.00;2080084;28;29752;-69
2023/04/14 02:24:04;;;;;;;31.88;16.85;;;;;;;-146.25;100.00;52420.91;2080082;28;20087;-68
2023/04/14 02:25:07;;;;;;;30.35;18.00;;;;;;;-146.25;100.00;52364.13;2079760;28;20046;-69
2023/04/14 02:26:22;;;;;;;27.67;15.70;;;;;;;-146.25;100.00;52412.81;2096569;28;26847;-69
2023/04/14 02:28:09;;;;;;;27.85;16.27;;;;;;;-146.25;100.00;52392.53;2085673;28;20042;-69
2023/04/14 02:29:15;;;;;;;24.98;13.55;;;;;;;-146.25;100.00;52388.47;2094140;28;26074;-69
2023/04/14 02:30:23;;;;;;;25.73;15.48;;;;;;;-146.25;100.00;52396.59;2087739;28;20029;-70
2023/04/14 02:31:29;;;;;;;29.92;15.18;;;;;;;-146.25;100.00;52372.25;2079797;28;23932;-69
2023/04/14 02:32:33;;;;;;;29.83;16.75;;;;;;;-146.25;100.00;52392.53;2088339;28;27680;-69
2023/04/14 02:33:38;;;;;;;34.50;18.67;;;;;;;-146.25;100.00;52384.41;2095892;28;31672;-69
2023/04/14 02:34:52;;;;;;;30.92;17.95;;;;;;;-146.25;100.00;52376.31;2087251;28;20049;-69
2023/04/14 02:36:09;;;;;;;34.33;19.52;;;;;;;-146.25;100.00;52380.38;2079240;28;31013;-69
2023/04/14 02:37:20;;;;;;;33.60;20.17;;;;;;;-146.25;100.00;52404.69;2079648;28;20056;-69
2023/04/14 02:38:29;;;;;;;39.40;20.73;;;;;;;-146.25;100.00;52431.06;2089202;28;27379;-69
2023/04/14 02:39:41;;;;;;;34.72;20.20;;;;;;;-146.25;100.00;52390.50;2086280;28;28140;-69
2023/04/14 02:40:44;;;;;;;33.53;19.80;;;;;;;-146.25;100.00;52408.75;2079942;28;26210;-68
2023/04/14 02:41:55;;;;;;;32.75;19.13;;;;;;;-146.25;100.00;52433.06;2078942;28;20053;-69
2023/04/14 02:43:10;;;;;;;32.47;18.08;;;;;;;-146.25;100.00;52437.13;2089244;28;20041;-69
2023/04/14 02:44:24;;;;;;;29.42;19.20;;;;;;;-146.25;100.00;52433.06;2086412;28;20080;-69
2023/04/14 02:45:31;;;;;;;27.92;18.00;;;;;;;-146.25;100.00;52420.91;2089658;28;20053;-69
2023/04/14 02:46:40;;;;;;;32.35;17.73;;;;;;;-146.25;100.00;52370.22;2087509;28;20049;-71
2023/04/14 02:47:49;;;;;;;31.20;17.50;;;;;;;-146.25;100.00;52408.75;2081298;28;20089;-69
2023/04/14 02:48:53;;;;;;;33.05;17.85;;;;;;;-146.25;100.00;52382.38;2079863;28;21029;-69
2023/04/14 02:49:59;;;;;;;26.48;15.77;;;;;;;-146.25;100.00;52380.38;2079146;28;20221;-69
2023/04/14 02:51:03;;;;;;;25.58;15.50;;;;;;;-146.25;100.00;52437.13;2064885;28;20054;-69
2023/04/14 02:52:10;;;;;;;33.10;18.90;;;;;;;-146.25;100.00;52396.59;2079653;28;30732;-69
2023/04/14 02:53:17;;;;;;;27.40;16.50;;;;;;;-146.25;100.00;52384.41;2080194;28;20049;-69
2023/04/14 02:54:20;;;;;;;34.72;19.30;;;;;;;-146.25;100.00;52429.03;2080550;28;20180;-68
2023/04/14 02:55:24;;;;;;;30.50;18.42;;;;;;;-146.25;100.00;52400.63;2088268;28;20099;-69
2023/04/14 02:56:28;;;;;;;29.55;16.42;;;;;;;-146.25;100.00;52400.63;2079376;28;20038;-69
2023/04/14 02:57:33;;;;;;;26.98;16.52;;;;;;;-146.25;100.00;52388.47;2071601;28;20038;-69
2023/04/14 02:58:36;;;;;;;31.42;17.67;;;;;;;-146.25;100.00;52396.59;2072679;28;20042;-69
2023/04/14 02:59:40;;;;;;;30.98;17.75;;;;;;;-146.25;100.00;52414.84;2096607;28;20101;-69
2023/04/14 03:00:45;;;;;;;27.60;16.35;;;;;;;-146.25;100.00;52386.44;2079247;28;20176;-69
2023/04/14 03:01:50;;;;;;;29.73;17.50;;;;;;;-146.25;100.00;52392.53;2073242;28;20872;-69
2023/04/14 03:02:54;;;;;;;31.30;16.98;;;;;;;-146.25;100.00;52370.22;2095839;28;20048;-68
2023/04/14 03:03:56;;;;;;;23.10;15.02;;;;;;;-146.25;100.00;52420.91;2095636;28;20104;-69
2023/04/14 03:05:00;;;;;;;26.80;15.73;;;;;;;-146.25;100.00;52418.88;2087923;28;20072;-69
2023/04/14 03:06:23;;;;;;;23.08;14.05;;;;;;;-146.25;100.00;52400.63;2084518;28;20092;-69
2023/04/14 03:07:29;;;;;;;22.85;14.45;;;;;;;-146.25;100.00;52416.84;2087973;28;20915;-69
2023/04/14 03:08:36;;;;;;;23.50;15.18;;;;;;;-146.25;100.00;52441.19;2079420;28;20927;-68
2023/04/14 03:09:39;;;;;;;25.92;16.05;;;;;;;-146.25;100.00;52447.28;2089030;28;20037;-69
2023/04/14 03:10:45;;;;;;;26.50;16.65;;;;;;;-146.25;100.00;52394.56;2095684;28;20082;-69
2023/04/14 03:11:49;;;;;;;25.13;16.17;;;;;;;-146.25;100.00;52420.91;2080028;28;20054;-69
2023/04/14 03:12:53;;;;;;;29.35;15.20;;;;;;;-146.25;100.00;52412.81;2080649;28;20041;-69
2023/04/14 03:13:57;;;;;;;27.60;16.95;;;;;;;-146.25;100.00;52394.56;2078659;28;20938;-69
2023/04/14 03:15:01;;;;;;;25.90;16.98;;;;;;;-146.25;100.00;52431.06;2064100;28;22320;-68
2023/04/14 03:16:04;;;;;;;29.02;17.15;;;;;;;-146.25;100.00;52402.66;2088360;28;20920;-68
2023/04/14 03:17:08;;;;;;;30.20;16.45;;;;;;;-146.25;100.00;52427.00;2071292;28;20808;-69
2023/04/14 03:18:11;;;;;;;28.75;17.95;;;;;;;-146.25;100.00;52396.59;2072586;28;20850;-69
2023/04/14 03:19:13;;;;;;;29.95;16.80;;;;;;;-146.25;100.00;52443.22;2079506;28;20088;-69
2023/04/14 03:20:22;;;;;;;21.80;14.80;;;;;;;-146.25;100.00;52384.41;2080519;28;20050;-69
2023/04/14 03:21:28;;;;;;;28.27;15.80;;;;;;;-146.25;100.00;52427.00;2078836;28;20864;-69
2023/04/14 03:22:34;;;;;;;30.40;16.80;;;;;;;-146.25;100.00;52408.75;2072500;28;20047;-68
2023/04/14 03:23:38;;;;;;;30.83;17.90;;;;;;;-146.25;100.00;52394.56;2071929;28;20062;-68
2023/04/14 03:24:47;;;;;;;29.65;17.05;;;;;;;-146.25;100.00;52410.78;2071716;28;20045;-69
2023/04/14 03:25:52;;;;;;;25.88;16.95;;;;;;;-146.25;100.00;52412.81;2088831;28;20897;-69
2023/04/14 03:27:04;;;;;;;28.65;17.00;;;;;;;-146.25;100.00;52431.06;2078755;28;20049;-69
2023/04/14 03:28:13;;;;;;;28.38;16.58;;;;;;;-146.25;100.00;52408.75;2073314;28;20062;-69
2023/04/14 03:29:19;;;;;;;;;;;;;;;-146.25;100.00;52394.56;2073289;28;20201;-68
2023/04/14 03:30:25;;;;;;;24.48;14.85;;;;;;;-146.25;100.00;52437.13;2080182;28;19921;-69
2023/04/14 03:31:35;;;;;;;35.13;18.15;;;;;;;-146.25;100.00;52418.88;2079185;28;20916;-68
2023/04/14 03:32:40;;;;;;;28.17;15.52;;;;;;;-146.25;100.00;52384.41;2072674;28;20043;-68
2023/04/14 03:33:47;;;;;;;32.55;17.35;;;;;;;-146.25;100.00;52402.66;2072089;28;20046;-69
2023/04/14 03:34:56;;;;;;;24.40;16.33;;;;;;;-146.25;100.00;52376.31;2072436;28;20189;-69
2023/04/14 03:36:01;;;;;;;30.10;16.67;;;;;;;-146.25;100.00;52422.94;2088582;28;20915;-69
2023/04/14 03:37:07;;;;;;;24.48;16.55;;;;;;;-146.25;100.00;52420.91;2096437;28;20084;-69
2023/04/14 03:38:10;;;;;;;27.17;16.60;;;;;;;-146.25;100.00;52404.69;2087565;28;20037;-69
2023/04/14 03:39:17;;;;;;;28.10;17.15;;;;;;;-146.25;100.00;52386.44;2088242;28;20104;-69
2023/04/14 03:40:19;;;;;;;27.95;17.40;;;;;;;-146.25;100.00;52416.84;2096011;28;20057;-69
2023/04/14 03:41:27;;;;;;;27.70;16.13;;;;;;;-146.25;100.00;52445.25;2097183;28;20096;-69
2023/04/14 03:42:30;;;;;;;29.35;16.27;;;;;;;-146.25;100.00;52400.63;2095372;28;20898;-69
2023/04/14 03:43:34;;;;;;;26.77;16.33;;;;;;;-146.25;100.00;52439.16;2087906;28;20049;-69
2023/04/14 03:44:45;;;;;;;30.17;15.77;;;;;;;-146.25;100.00;52376.31;2087818;28;20911;-69
2023/04/14 03:45:49;;;;;;;24.55;15.25;;;;;;;-146.25;100.00;52364.13;2097383;28;20044;-69
2023/04/14 03:46:53;;;;;;;23.83;15.57;;;;;;;-146.25;100.00;52396.59;2103435;28;20036;-69
2023/04/14 03:48:02;;;;;;;24.33;16.73;;;;;;;-146.25;100.00;52358.06;2104298;28;20117;-69
2023/04/14 03:49:10;;;;;;;32.00;20.02;;;;;;;-146.25;100.00;52368.19;2094865;28;20041;-68
2023/04/14 03:50:16;;;;;;;32.80;19.30;;;;;;;-146.25;100.00;52364.13;2088199;28;20168;-69
2023/04/14 03:51:21;;;;;;;36.97;20.10;;;;;;;-146.25;100.00;52370.22;2104921;28;20041;-69
2023/04/14 03:52:25;;;;;;;31.85;19.95;;;;;;;-146.25;100.00;52404.69;2086499;28;20045;-69
2023/04/14 03:53:29;;;;;;;34.25;20.52;;;;;;;-146.25;100.00;52424.97;2089397;28;20060;-69
2023/04/14 03:54:34;;;;;;;37.88;21.58;;;;;;;-146.25;100.00;52429.03;2096729;28;20048;-69
2023/04/14 03:55:37;;;;;;;45.42;23.58;;;;;;;-146.25;100.00;52427.00;2089741;28;20872;-69
2023/04/14 03:56:43;;;;;;;47.13;25.60;;;;;;;-146.25;100.00;52412.81;2096425;28;32006;-68
2023/04/14 03:57:48;;;;;;;46.40;26.48;;;;;;;-146.25;100.00;52378.34;2088859;28;20049;-69
2023/04/14 03:58:54;;;;;;;48.75;27.98;;;;;;;-146.25;100.00;52408.75;2097471;28;24383;-69
2023/04/14 04:00:00;;;;;;;52.63;29.33;;;;;;;-146.25;100.00;52382.38;2096257;28;21365;-69
2023/04/14 04:01:05;;;;;;;52.03;29.52;;;;;;;-146.25;100.00;52376.31;2088221;28;21032;-67
2023/04/14 04:02:09;;;;;;;47.42;27.67;;;;;;;-146.25;100.00;52392.53;2088452;28;32198;-68
2023/04/14 04:03:14;;;;;;;43.28;25.70;;;;;;;-146.25;100.00;52408.75;2089746;28;20135;-68
2023/04/14 04:04:17;;;;;;;45.25;26.27;;;;;;;-146.25;100.00;52380.38;2089050;28;20041;-68
2023/04/14 04:05:24;;;;;;;44.67;24.98;;;;;;;-146.25;100.00;52384.41;2088827;28;20887;-68
2023/04/14 04:06:27;;;;;;;37.75;23.40;;;;;;;-146.25;100.00;52420.91;2089959;28;20029;-68
2023/04/14 04:07:31;;;;;;;42.35;25.38;;;;;;;-146.25;100.00;52400.63;2089176;28;20582;-68
2023/04/14 04:08:34;;;;;;;48.30;25.65;;;;;;;-146.25;100.00;52412.81;2098059;28;20217;-68
2023/04/14 04:09:38;;;;;;;40.92;25.23;;;;;;;-146.25;100.00;52439.16;2096419;28;20041;-69
2023/04/14 04:10:43;;;;;;;36.75;22.23;;;;;;;-146.25;100.00;52449.31;2097968;28;20890;-69
2023/04/14 04:11:48;;;;;;;39.22;23.73;;;;;;;-146.25;100.00;52427.00;2105058;28;20036;-67
2023/04/14 04:12:51;;;;;;;40.38;24.20;;;;;;;-146.25;100.00;52408.75;2080719;28;20113;-69
2023/04/14 04:13:56;;;;;;;41.10;23.48;;;;;;;-146.25;100.00;52406.72;2082192;28;20985;-69
2023/04/14 04:14:58;;;;;;;38.15;22.75;;;;;;;-146.25;100.00;52390.50;2089045;28;20037;-69
2023/04/14 04:16:01;;;;;;;33.17;19.48;;;;;;;-146.25;100.00;52382.38;2089674;28;20119;-68
2023/04/14 04:17:07;;;;;;;31.05;18.70;;;;;;;-146.25;100.00;52420.91;2105462;28;20894;-68
2023/04/14 04:18:12;;;;;;;28.30;17.90;;;;;;;-146.25;100.00;52378.34;2096666;28;20963;-68
2023/04/14 04:19:15;;;;;;;30.70;19.13;;;;;;;-146.25;100.00;52412.81;2089820;28;28700;-68
2023/04/14 04:20:20;;;;;;;29.83;19.25;;;;;;;-146.25;100.00;52420.91;2088723;28;20041;-68
2023/04/14 04:21:26;;;;;;;37.20;21.42;;;;;;;-146.25;100.00;52416.84;2088920;28;20051;-69
2023/04/14 04:22:29;;;;;;;30.33;18.63;;;;;;;-146.25;100.00;52390.50;2088081;28;20037;-69
2023/04/14 04:23:33;;;;;;;35.78;20.50;;;;;;;-146.25;100.00;52431.06;2097680;28;26445;-69
2023/04/14 04:24:39;;;;;;;35.70;21.83;;;;;;;-146.25;100.00;52396.59;2088604;28;20091;-69
2023/04/14 04:25:44;;;;;;;32.33;19.98;;;;;;;-146.25;100.00;52388.47;2083601;28;20053;-69
2023/04/14 04:26:55;;;;;;;36.42;21.73;;;;;;;-146.25;100.00;52435.09;2089224;28;20041;-68
2023/04/14 04:27:59;;;;;;;41.75;23.83;;;;;;;-146.25;100.00;52435.09;2080726;28;20890;-68
2023/04/14 04:29:03;;;;;;;38.58;22.58;;;;;;;-146.25;100.00;52392.53;2089606;28;20069;-69
2023/04/14 04:30:08;;;;;;;38.55;22.73;;;;;;;-146.25;100.00;52418.88;2081190;28;20050;-70
2023/04/14 04:31:13;;;;;;;36.72;22.15;;;;;;;-146.25;100.00;52408.75;2073432;28;20117;-69
2023/04/14 04:32:15;;;;;;;39.25;23.02;;;;;;;-146.25;100.00;52378.34;2081937;28;20082;-68
2023/04/14 04:33:20;;;;;;;35.58;22.90;;;;;;;-146.25;100.00;52412.81;2097569;28;20040;-68
2023/04/14 04:34:24;;;;;;;36.40;22.55;;;;;;;-146.25;100.00;52400.63;2089521;28;20041;-68
2023/04/14 04:35:27;;;;;;;46.35;25.35;;;;;;;-146.25;100.00;52388.47;2080806;28;20100;-69
2023/04/14 04:36:33;;;;;;;43.20;25.25;;;;;;;-146.25;100.00;52394.56;2081374;28;20932;-69
2023/04/14 04:37:36;;;;;;;45.42;25.15;;;;;;;-146.25;100.00;52406.72;2096814;28;26475;-70
2023/04/14 04:38:38;;;;;;;46.50;27.75;;;;;;;-146.25;100.00;52396.59;2097146;28;20041;-69
2023/04/14 04:39:40;;;;;;;45.70;27.27;;;;;;;-146.25;100.00;52433.06;2089134;28;20053;-68
2023/04/14 04:40:42;;;;;;;48.03;29.30;;;;;;;-146.25;100.00;52412.81;2088937;28;20141;-68
2023/04/14 04:42:00;;;;;;;51.60;29.98;;;;;;;-146.25;100.00;52366.16;2097101;28;20029;-68
2023/04/14 04:43:02;;;;;;;46.20;28.38;;;;;;;-146.25;100.00;52420.91;2088977;28;20525;-68
2023/04/14 04:44:04;;;;;;;44.05;27.92;;;;;;;-146.25;100.00;52435.09;2090595;28;20127;-69
2023/04/14 04:45:09;;;;;;;57.25;32.25;;;;;;;-146.25;100.00;52416.84;2096787;28;20056;-69
2023/04/14 04:46:41;;;;;;;59.70;33.70;;;;;;;-146.25;100.00;52402.66;2088609;28;20045;-69
2023/04/14 04:47:43;;;;;;;52.20;31.13;;;;;;;-146.25;100.00;52390.50;2092789;28;20053;-68
2023/04/14 04:48:51;;;;;;;54.83;31.80;;;;;;;-146.25;100.00;52406.72;2088434;28;20045;-69
2023/04/14 04:49:53;;;;;;;54.78;32.85;;;;;;;-146.25;100.00;52418.88;2081566;28;20903;-69
2023/04/14 04:50:54;;;;;;;49.35;29.05;;;;;;;-146.25;100.00;52427.00;2088330;28;25776;-68
2023/04/14 04:51:56;;;;;;;44.13;27.63;;;;;;;-146.25;100.00;52449.31;2088946;28;20212;-69
2023/04/14 04:52:58;;;;;;;39.92;25.45;;;;;;;-146.25;100.00;52410.78;2088446;28;24951;-69
2023/04/14 04:54:02;;;;;;;43.53;24.83;;;;;;;-146.25;100.00;52398.59;2088775;28;20046;-69
2023/04/14 04:55:05;;;;;;;41.90;27.45;;;;;;;-146.25;100.00;52396.59;2088347;28;32705;-68